createdAt,value
2023-04-13T00:04:50.696Z,51.40
2023-04-13T00:09:55.403Z,51.40
2023-04-13T00:14:58.852Z,51.20
2023-04-13T00:20:08.200Z,51.30
2023-04-13T00:25:14.822Z,51.30
2023-04-13T00:30:20.133Z,51.40
2023-04-13T00:35:25.202Z,51.50
2023-04-13T00:40:30.246Z,51.50
2023-04-13T00:45:38.929Z,51.60
2023-04-13T00:50:43.567Z,51.80
2023-04-13T00:55:49.045Z,51.90
2023-04-13T01:00:52.678Z,52.00
2023-04-13T01:06:07.748Z,52.10
2023-04-13T01:11:19.293Z,52.20
2023-04-13T01:16:28.212Z,52.30
2023-04-13T01:21:34.546Z,52.40
2023-04-13T01:26:54.470Z,52.70
2023-04-13T01:32:00.635Z,52.80
2023-04-13T01:37:05.746Z,52.90
2023-04-13T01:42:09.218Z,53.00
2023-04-13T01:47:21.485Z,53.10
2023-04-13T01:52:27.897Z,53.10
2023-04-13T01:57:32.670Z,53.10
2023-04-13T02:02:38.174Z,53.20
2023-04-13T02:07:44.841Z,53.10
2023-04-13T02:12:50.114Z,53.00
2023-04-13T02:17:55.106Z,53.00
2023-04-13T02:22:58.782Z,53.00
2023-04-13T02:28:02.191Z,53.00
2023-04-13T02:33:09.632Z,53.10
2023-04-13T02:38:13.157Z,53.20
2023-04-13T02:43:17.713Z,53.30
2023-04-13T02:48:22.873Z,53.40
2023-04-13T02:53:26.302Z,53.60
2023-04-13T02:58:33.133Z,54.00
2023-04-13T03:03:37.992Z,54.20
2023-04-13T03:08:41.355Z,54.40
2023-04-13T03:13:44.801Z,54.30
2023-04-13T03:18:51.480Z,54.20
2023-04-13T03:23:54.950Z,54.40
2023-04-13T03:28:58.598Z,54.60
2023-04-13T03:34:03.683Z,54.80
2023-04-13T03:39:07.119Z,54.80
2023-04-13T03:44:10.841Z,54.70
2023-04-13T03:49:15.601Z,54.80
2023-04-13T03:54:19.003Z,54.90
2023-04-13T03:59:22.966Z,54.90
2023-04-13T04:04:27.857Z,55.00
2023-04-13T04:09:31.378Z,56.00
2023-04-13T04:14:35.441Z,55.00
2023-04-13T04:19:40.207Z,55.10
2023-04-13T04:24:43.656Z,55.30
2023-04-13T04:29:49.424Z,55.50
2023-04-13T04:34:54.309Z,56.40
2023-04-13T04:39:57.720Z,56.00
2023-04-13T04:45:01.535Z,56.20
2023-04-13T04:50:07.041Z,56.20
2023-04-13T04:55:11.216Z,56.70
2023-04-13T05:00:17.400Z,56.80
2023-04-13T05:05:22.671Z,56.80
2023-04-13T05:10:28.336Z,56.50
2023-04-13T05:15:31.895Z,56.30
2023-04-13T05:20:37.839Z,56.20
2023-04-13T05:25:41.282Z,56.20
2023-04-13T05:30:45.035Z,56.20
2023-04-13T05:35:49.742Z,56.30
2023-04-13T05:40:53.633Z,56.40
2023-04-13T05:45:57.087Z,56.60
2023-04-13T05:51:01.881Z,56.70
2023-04-13T05:56:06.178Z,57.00
2023-04-13T06:01:11.597Z,57.00
2023-04-13T06:06:43.433Z,57.20
2023-04-13T06:11:48.209Z,57.60
2023-04-13T06:16:53.240Z,57.50
2023-04-13T06:21:57.185Z,57.70
2023-04-13T06:27:02.056Z,57.70
2023-04-13T06:32:07.603Z,57.70
2023-04-13T06:37:11.038Z,57.90
2023-04-13T06:42:16.300Z,57.90
2023-04-13T06:47:19.778Z,58.00
2023-04-13T06:52:23.218Z,58.10
2023-04-13T06:57:28.363Z,58.30
2023-04-13T07:02:32.216Z,58.50
2023-04-13T07:07:36.083Z,58.90
2023-04-13T07:12:41.186Z,58.90
2023-04-13T07:17:44.649Z,58.90
2023-04-13T07:22:48.245Z,59.10
2023-04-13T07:27:53.237Z,59.10
2023-04-13T07:32:57.326Z,60.00
2023-04-13T07:38:00.841Z,60.00
2023-04-13T07:43:06.015Z,60.10
2023-04-13T07:48:09.405Z,59.90
2023-04-13T07:53:12.900Z,59.80
2023-04-13T07:58:17.633Z,60.00
2023-04-13T08:03:21.501Z,60.20
2023-04-13T08:08:25.100Z,60.10
2023-04-13T08:13:31.461Z,60.20
2023-04-13T08:18:35.531Z,61.60
2023-04-13T08:23:42.264Z,61.10
2023-04-13T08:28:49.208Z,60.90
2023-04-13T08:33:52.689Z,60.60
2023-04-13T08:38:56.071Z,60.60
2023-04-13T08:44:05.718Z,60.70
2023-04-13T08:49:11.700Z,61.20
2023-04-13T08:54:16.426Z,61.40
2023-04-13T08:59:23.735Z,62.70
2023-04-13T09:04:33.272Z,63.60
2023-04-13T09:09:40.015Z,64.90
2023-04-13T09:14:46.925Z,65.10
2023-04-13T09:19:51.292Z,65.40
2023-04-13T09:24:54.761Z,66.00
2023-04-13T09:30:01.064Z,66.20
2023-04-13T09:35:08.171Z,66.20
2023-04-13T09:40:13.761Z,66.00
2023-04-13T09:45:18.792Z,66.00
2023-04-13T09:50:24.452Z,65.50
2023-04-13T09:55:28.907Z,66.10
2023-04-13T10:00:34.015Z,66.30
2023-04-13T10:05:51.069Z,66.70
2023-04-13T10:11:02.407Z,66.60
2023-04-13T10:16:21.277Z,66.10
2023-04-13T10:21:26.698Z,66.00
2023-04-13T10:26:33.271Z,65.90
2023-04-13T10:31:39.615Z,65.50
2023-04-13T10:36:47.011Z,64.90
2023-04-13T10:42:00.151Z,63.10
2023-04-13T10:47:06.258Z,63.20
2023-04-13T10:52:11.606Z,63.60
2023-04-13T10:57:15.044Z,63.90
2023-04-13T11:02:20.691Z,64.50
2023-04-13T11:07:27.078Z,65.20
2023-04-13T11:12:30.551Z,66.10
2023-04-13T11:17:35.390Z,66.60
2023-04-13T11:22:39.626Z,67.50
2023-04-13T11:27:43.204Z,67.90
2023-04-13T11:32:48.647Z,67.60
2023-04-13T11:37:53.992Z,67.60
2023-04-13T11:42:58.862Z,67.80
2023-04-13T11:48:06.489Z,67.90
2023-04-13T11:53:11.171Z,68.40
2023-04-13T11:58:16.964Z,68.60
2023-04-13T12:03:38.274Z,69.40
2023-04-13T12:08:57.550Z,67.90
2023-04-13T12:14:10.189Z,68.10
2023-04-13T12:19:26.818Z,68.00
2023-04-13T12:24:37.869Z,68.20
2023-04-13T12:29:42.025Z,67.90
2023-04-13T12:40:13.394Z,69.70
2023-04-13T12:45:17.695Z,69.20
2023-04-13T12:50:21.737Z,70.20
2023-04-13T12:55:27.061Z,70.60
2023-04-13T13:00:30.815Z,70.20
2023-04-13T13:05:34.750Z,69.30
2023-04-13T13:16:19.644Z,68.90
2023-04-13T13:21:23.859Z,65.50
2023-04-13T13:26:30.606Z,66.70
2023-04-13T13:31:45.153Z,66.90
2023-04-13T13:36:49.715Z,66.50
2023-04-13T13:41:53.167Z,67.10
2023-04-13T13:46:58.215Z,67.90
2023-04-13T13:52:01.990Z,67.80
2023-04-13T13:57:05.506Z,67.90
2023-04-13T14:02:10.464Z,67.80
2023-04-13T14:07:14.502Z,68.00
2023-04-13T14:12:18.363Z,67.80
2023-04-13T14:17:23.229Z,67.30
2023-04-13T14:22:26.936Z,66.60
2023-04-13T14:27:30.765Z,66.30
2023-04-13T14:32:35.903Z,67.10
2023-04-13T14:37:39.412Z,66.80
2023-04-13T14:42:43.067Z,66.90
2023-04-13T14:47:48.148Z,66.90
2023-04-13T14:52:52.333Z,67.00
2023-04-13T14:57:58.381Z,67.70
2023-04-13T15:03:03.492Z,68.40
2023-04-13T15:08:08.485Z,68.40
2023-04-13T15:13:12.127Z,68.70
2023-04-13T15:18:17.581Z,68.60
2023-04-13T15:23:21.218Z,68.50
2023-04-13T15:28:24.781Z,68.80
2023-04-13T15:33:29.615Z,69.40
2023-04-13T15:38:33.221Z,69.70
2023-04-13T15:43:36.710Z,70.30
2023-04-13T15:48:41.513Z,70.20
2023-04-13T15:53:44.945Z,70.20
2023-04-13T15:58:48.689Z,70.40
2023-04-13T16:03:54.919Z,70.50
2023-04-13T16:08:59.454Z,70.70
2023-04-13T16:14:07.441Z,71.10
2023-04-13T16:19:13.107Z,71.40
2023-04-13T16:24:17.845Z,72.20
2023-04-13T16:29:21.955Z,73.00
2023-04-13T16:34:27.944Z,73.60
2023-04-13T16:39:31.425Z,74.90
2023-04-13T16:44:34.880Z,75.90
2023-04-13T16:49:39.740Z,76.70
2023-04-13T16:54:44.478Z,77.70
2023-04-13T16:59:48.547Z,78.10
2023-04-13T17:04:54.619Z,78.60
2023-04-13T17:09:58.083Z,78.20
2023-04-13T17:15:02.281Z,78.30
2023-04-13T17:20:08.647Z,78.40
2023-04-13T17:25:12.146Z,78.70
2023-04-13T17:30:16.119Z,78.70
2023-04-13T17:35:20.999Z,78.50
2023-04-13T17:40:24.477Z,78.20
2023-04-13T17:45:27.950Z,78.00
2023-04-13T17:50:33.863Z,78.30
2023-04-13T17:55:37.588Z,78.10
2023-04-13T18:00:41.364Z,79.70
2023-04-13T18:05:46.618Z,78.70
2023-04-13T18:10:50.100Z,79.30
2023-04-13T18:15:53.828Z,79.20
2023-04-13T18:20:58.726Z,79.60
2023-04-13T18:26:02.916Z,79.80
2023-04-13T18:31:07.193Z,80.10
2023-04-13T18:36:15.273Z,80.50
2023-04-13T18:41:21.187Z,80.80
2023-04-13T18:46:26.507Z,81.10
2023-04-13T18:51:32.899Z,81.20
2023-04-13T18:56:36.391Z,81.10
2023-04-13T19:01:39.889Z,81.20
2023-04-13T19:06:45.494Z,81.40
2023-04-13T19:11:51.274Z,81.30
2023-04-13T19:16:55.977Z,81.40
2023-04-13T19:22:01.130Z,81.60
2023-04-13T19:27:04.738Z,82.40
2023-04-13T19:32:11.889Z,81.40
2023-04-13T19:37:17.350Z,81.50
2023-04-13T19:42:20.820Z,82.90
2023-04-13T19:47:25.175Z,82.20
2023-04-13T19:52:32.160Z,82.30
2023-04-13T19:57:40.439Z,82.70
2023-04-13T20:02:44.892Z,82.80
2023-04-13T20:07:51.875Z,82.90
2023-04-13T20:12:55.366Z,82.40
2023-04-13T20:17:59.521Z,82.00
2023-04-13T20:23:05.413Z,82.10
2023-04-13T20:28:10.341Z,82.20
2023-04-13T20:33:14.097Z,81.90
2023-04-13T20:38:18.851Z,82.90
2023-04-13T20:43:23.109Z,81.70
2023-04-13T20:53:38.290Z,81.80
2023-04-13T20:58:41.983Z,81.80
2023-04-13T21:03:45.965Z,81.80
2023-04-13T21:08:52.740Z,81.70
2023-04-13T21:13:56.260Z,82.00
2023-04-13T21:19:00.225Z,82.00
2023-04-13T21:24:05.242Z,82.20
2023-04-13T21:29:10.146Z,82.50
2023-04-13T21:34:13.679Z,82.80
2023-04-13T21:39:18.631Z,83.00
2023-04-13T21:44:29.751Z,83.00
2023-04-13T21:49:33.906Z,83.10
2023-04-13T21:54:39.024Z,83.10
2023-04-13T21:59:42.524Z,83.10
2023-04-13T22:04:45.917Z,83.00
2023-04-13T22:09:51.022Z,82.60
2023-04-13T22:14:54.513Z,82.60
2023-04-13T22:19:58.699Z,82.80
2023-04-13T22:25:03.573Z,82.70
2023-04-13T22:30:08.417Z,82.50
2023-04-13T22:35:12.246Z,82.40
2023-04-13T22:40:17.370Z,82.30
2023-04-13T22:45:21.022Z,82.30
2023-04-13T22:50:25.670Z,82.50
2023-04-13T22:55:30.649Z,82.60
2023-04-13T23:00:34.052Z,82.60
2023-04-13T23:05:37.529Z,82.50
2023-04-13T23:10:42.239Z,82.50
2023-04-13T23:15:45.910Z,82.40
2023-04-13T23:20:49.408Z,82.40
2023-04-13T23:25:54.132Z,82.50
2023-04-13T23:31:04.065Z,82.50
2023-04-13T23:36:08.312Z,82.50
2023-04-13T23:41:13.090Z,82.40
2023-04-13T23:46:17.241Z,82.40
2023-04-13T23:51:20.630Z,82.50
2023-04-13T23:56:26.107Z,82.40
